createdAt,value
2022-09-11T00:02:17.656Z,6.65
2022-09-11T00:04:44.640Z,6.40
2022-09-11T00:07:13.930Z,6.57
2022-09-11T00:09:40.788Z,6.60
2022-09-11T00:12:07.792Z,7.57
2022-09-11T00:14:34.768Z,6.60
2022-09-11T00:17:01.560Z,7.18
2022-09-11T00:19:28.769Z,6.53
2022-09-11T00:21:57.320Z,6.63
2022-09-11T00:24:24.331Z,6.75
2022-09-11T00:26:51.159Z,6.35
2022-09-11T00:29:18.011Z,6.88
2022-09-11T00:31:44.937Z,6.15
2022-09-11T00:34:11.881Z,7.65
2022-09-11T00:36:41.478Z,7.10
2022-09-11T00:39:08.350Z,6.78
2022-09-11T00:41:36.954Z,7.15
2022-09-11T00:44:06.125Z,6.50
2022-09-11T00:46:53.337Z,6.50
2022-09-11T00:49:20.106Z,7.50
2022-09-11T00:51:49.106Z,6.38
2022-09-11T00:54:16.911Z,6.82
2022-09-11T00:56:44.064Z,7.03
2022-09-11T00:59:11.513Z,6.90
2022-09-11T01:01:38.416Z,6.75
2022-09-11T01:04:05.762Z,6.25
2022-09-11T01:06:33.021Z,6.35
2022-09-11T01:08:59.970Z,6.22
2022-09-11T01:11:44.373Z,6.05
2022-09-11T01:17:46.151Z,6.03
2022-09-11T01:20:36.795Z,4.93
2022-09-11T01:23:32.057Z,5.93
2022-09-11T01:26:10.895Z,5.60
2022-09-11T01:28:47.456Z,5.45
2022-09-11T01:31:15.994Z,5.57
2022-09-11T01:33:44.933Z,5.72
2022-09-11T01:36:22.323Z,6.70
2022-09-11T01:38:54.242Z,5.72
2022-09-11T01:41:30.464Z,6.28
2022-09-11T01:44:08.980Z,6.40
2022-09-11T01:46:41.057Z,5.78
2022-09-11T01:49:48.789Z,6.57
2022-09-11T01:52:18.338Z,5.55
2022-09-11T01:54:47.576Z,6.03
2022-09-11T01:57:20.410Z,6.60
2022-09-11T01:59:51.095Z,6.15
2022-09-11T02:02:22.409Z,5.20
2022-09-11T02:04:52.338Z,7.32
2022-09-11T02:07:24.026Z,6.20
2022-09-11T02:09:59.663Z,6.05
2022-09-11T02:12:28.961Z,6.15
2022-09-11T02:14:55.949Z,6.00
2022-09-11T02:17:29.141Z,5.47
2022-09-11T02:19:56.913Z,5.93
2022-09-11T02:22:24.678Z,5.43
2022-09-11T02:24:51.766Z,5.32
2022-09-11T02:27:27.358Z,5.60
2022-09-11T02:29:54.969Z,5.85
2022-09-11T02:32:22.361Z,5.55
2022-09-11T02:34:52.093Z,5.97
2022-09-11T02:37:52.856Z,6.20
2022-09-11T02:40:45.079Z,5.72
2022-09-11T02:43:21.153Z,6.15
2022-09-11T02:45:54.400Z,6.20
2022-09-11T02:48:30.377Z,6.50
2022-09-11T02:51:33.080Z,6.25
2022-09-11T02:54:22.216Z,6.85
2022-09-11T02:57:09.953Z,5.93
2022-09-11T02:59:40.446Z,6.60
2022-09-11T03:02:10.224Z,6.10
2022-09-11T03:04:37.417Z,5.90
2022-09-11T03:07:04.418Z,6.25
2022-09-11T03:09:31.242Z,6.85
2022-09-11T03:11:59.820Z,6.45
2022-09-11T03:14:26.764Z,6.63
2022-09-11T03:16:53.564Z,6.20
2022-09-11T03:19:20.484Z,6.05
2022-09-11T03:21:47.215Z,7.28
2022-09-11T03:24:14.379Z,7.18
2022-09-11T03:26:41.141Z,6.25
2022-09-11T03:29:08.606Z,6.53
2022-09-11T03:31:39.089Z,6.72
2022-09-11T03:34:06.540Z,7.72
2022-09-11T03:36:34.599Z,6.97
2022-09-11T03:39:01.873Z,6.75
2022-09-11T03:41:28.814Z,6.53
2022-09-11T03:43:55.634Z,6.63
2022-09-11T03:46:22.665Z,6.65
2022-09-11T03:48:49.585Z,7.60
2022-09-11T03:51:17.320Z,7.00
2022-09-11T03:53:44.462Z,7.30
2022-09-11T03:56:11.855Z,7.18
2022-09-11T03:58:38.725Z,7.38
2022-09-11T04:01:11.034Z,8.32
2022-09-11T04:03:38.566Z,11.13
2022-09-11T04:06:05.645Z,12.15
2022-09-11T04:08:36.310Z,11.90
2022-09-11T04:11:04.410Z,11.70
2022-09-11T04:13:32.356Z,13.32
2022-09-11T04:16:04.839Z,12.88
2022-09-11T04:18:32.461Z,12.40
2022-09-11T04:20:59.513Z,12.10
2022-09-11T04:23:26.858Z,12.13
2022-09-11T04:25:53.706Z,12.02
2022-09-11T04:28:20.567Z,11.98
2022-09-11T04:30:47.337Z,11.48
2022-09-11T04:33:14.079Z,11.45
2022-09-11T04:35:41.157Z,10.60
2022-09-11T04:38:08.358Z,12.68
2022-09-11T04:40:35.258Z,12.32
2022-09-11T04:43:02.492Z,11.38
2022-09-11T04:45:33.459Z,11.30
2022-09-11T04:48:01.093Z,11.30
2022-09-11T04:50:28.987Z,10.10
2022-09-11T04:52:55.857Z,9.70
2022-09-11T04:55:22.641Z,10.07
2022-09-11T04:57:49.463Z,10.82
2022-09-11T05:00:16.326Z,9.55
2022-09-11T05:02:43.161Z,8.88
2022-09-11T05:05:10.018Z,10.00
2022-09-11T05:07:36.855Z,10.40
2022-09-11T05:10:03.842Z,9.55
2022-09-11T05:12:31.986Z,8.98
2022-09-11T05:14:59.476Z,10.10
2022-09-11T05:17:26.255Z,10.38
2022-09-11T05:19:52.918Z,9.45
2022-09-11T05:22:19.647Z,9.07
2022-09-11T05:24:46.417Z,9.10
2022-09-11T05:27:14.168Z,9.02
2022-09-11T05:29:42.105Z,8.90
2022-09-11T05:32:09.022Z,9.45
2022-09-11T05:34:35.816Z,7.78
2022-09-11T05:37:02.713Z,9.05
2022-09-11T05:39:29.621Z,8.70
2022-09-11T05:41:56.395Z,9.45
2022-09-11T05:44:23.191Z,9.18
2022-09-11T05:46:52.533Z,8.55
2022-09-11T05:49:19.457Z,9.18
2022-09-11T05:51:46.296Z,9.20
2022-09-11T05:54:13.098Z,8.88
2022-09-11T05:56:39.844Z,8.48
2022-09-11T05:59:14.224Z,9.25
2022-09-11T06:01:41.637Z,9.13
2022-09-11T06:04:12.353Z,9.75
2022-09-11T06:06:39.399Z,9.35
2022-09-11T06:09:07.552Z,9.00
2022-09-11T06:11:34.318Z,8.95
2022-09-11T06:14:01.391Z,10.73
2022-09-11T06:16:31.763Z,9.13
2022-09-11T06:18:58.696Z,8.63
2022-09-11T06:21:27.271Z,9.88
2022-09-11T06:23:53.949Z,9.73
2022-09-11T06:26:24.340Z,9.15
2022-09-11T06:28:51.305Z,9.20
2022-09-11T06:31:19.496Z,10.02
2022-09-11T06:33:47.207Z,9.55
2022-09-11T06:36:15.587Z,9.13
2022-09-11T06:38:42.405Z,8.07
2022-09-11T06:41:14.053Z,7.97
2022-09-11T06:43:41.311Z,8.75
2022-09-11T06:46:16.027Z,8.27
2022-09-11T06:48:43.696Z,8.63
2022-09-11T06:51:11.935Z,9.27
2022-09-11T06:53:39.362Z,9.45
2022-09-11T06:56:06.953Z,9.20
2022-09-11T06:58:33.929Z,9.65
2022-09-11T07:01:28.493Z,8.77
2022-09-11T07:03:55.514Z,8.40
2022-09-11T07:06:24.229Z,9.30
2022-09-11T07:08:56.729Z,9.63
2022-09-11T07:11:23.522Z,9.38
2022-09-11T07:13:50.562Z,10.18
2022-09-11T07:16:17.661Z,10.07
2022-09-11T07:18:45.648Z,9.95
2022-09-11T07:21:14.043Z,8.13
2022-09-11T07:23:43.991Z,9.63
2022-09-11T07:26:12.212Z,10.77
2022-09-11T07:28:39.344Z,11.00
2022-09-11T07:31:21.104Z,11.30
2022-09-11T07:33:48.913Z,10.80
2022-09-11T07:36:21.197Z,12.00
2022-09-11T07:38:48.496Z,12.35
2022-09-11T07:41:16.755Z,11.43
2022-09-11T07:43:46.849Z,12.63
2022-09-11T07:46:16.981Z,12.50
2022-09-11T07:48:46.314Z,11.82
2022-09-11T07:51:14.667Z,11.05
2022-09-11T07:53:46.562Z,11.73
2022-09-11T07:56:15.158Z,11.77
2022-09-11T07:58:44.053Z,11.52
2022-09-11T08:01:12.534Z,11.02
2022-09-11T08:03:39.538Z,10.70
2022-09-11T08:06:08.216Z,10.32
2022-09-11T08:08:35.412Z,9.85
2022-09-11T08:11:03.918Z,9.23
2022-09-11T08:13:30.681Z,8.82
2022-09-11T08:15:57.540Z,10.38
2022-09-11T08:18:26.328Z,9.18
2022-09-11T08:20:53.121Z,7.93
2022-09-11T08:23:21.313Z,7.95
2022-09-11T08:25:48.052Z,8.55
2022-09-11T08:28:15.105Z,7.20
2022-09-11T08:30:41.828Z,6.90
2022-09-11T08:33:09.555Z,6.03
2022-09-11T08:35:36.426Z,6.45
2022-09-11T08:38:03.394Z,5.45
2022-09-11T08:40:30.949Z,4.85
2022-09-11T08:42:59.828Z,4.75
2022-09-11T08:45:28.716Z,4.85
2022-09-11T08:47:56.757Z,4.28
2022-09-11T08:50:31.689Z,4.38
2022-09-11T08:53:04.356Z,3.95
2022-09-11T08:55:38.865Z,3.40
2022-09-11T08:58:18.689Z,4.00
2022-09-11T09:01:04.164Z,3.97
2022-09-11T09:03:49.393Z,3.58
2022-09-11T09:06:24.691Z,3.35
2022-09-11T09:09:15.757Z,3.50
2022-09-11T09:12:00.785Z,2.72
2022-09-11T09:14:30.628Z,3.03
2022-09-11T09:17:12.588Z,2.83
2022-09-11T09:19:40.197Z,2.55
2022-09-11T09:22:16.006Z,2.35
2022-09-11T09:24:46.640Z,2.30
2022-09-11T09:27:18.014Z,2.40
2022-09-11T09:29:47.313Z,2.10
2022-09-11T09:32:24.173Z,2.03
2022-09-11T09:34:51.344Z,1.80
2022-09-11T09:37:20.936Z,1.70
2022-09-11T09:39:48.346Z,1.80
2022-09-11T09:42:21.128Z,1.45
2022-09-11T09:44:51.062Z,1.50
2022-09-11T09:47:17.949Z,1.40
2022-09-11T09:49:44.925Z,1.48
2022-09-11T09:52:18.643Z,1.50
2022-09-11T09:55:04.022Z,1.17
2022-09-11T09:57:32.611Z,1.23
2022-09-11T10:00:05.657Z,1.73
2022-09-11T10:02:54.010Z,1.40
2022-09-11T10:05:27.952Z,1.30
2022-09-11T10:08:03.144Z,1.13
2022-09-11T10:10:40.225Z,1.55
2022-09-11T10:13:21.006Z,1.40
2022-09-11T10:15:55.738Z,1.33
2022-09-11T10:18:36.021Z,1.30
2022-09-11T10:21:12.046Z,2.00
2022-09-11T10:27:22.017Z,1.30
2022-09-11T10:29:57.428Z,1.30
2022-09-11T10:32:24.684Z,1.00
2022-09-11T10:34:51.540Z,1.30
2022-09-11T10:37:21.347Z,1.40
2022-09-11T10:39:48.145Z,1.05
2022-09-11T10:42:25.923Z,1.20
2022-09-11T10:44:53.042Z,1.30
2022-09-11T10:47:27.564Z,1.20
2022-09-11T10:50:16.260Z,1.00
2022-09-11T10:52:58.051Z,1.08
2022-09-11T10:55:35.344Z,1.00
2022-09-11T10:58:11.150Z,1.20
2022-09-11T11:00:38.729Z,1.10
2022-09-11T11:03:21.486Z,1.00
2022-09-11T11:06:03.518Z,1.00
2022-09-11T11:08:51.003Z,1.25
2022-09-11T11:11:32.774Z,0.93
2022-09-11T11:14:14.558Z,0.90
2022-09-11T11:17:08.846Z,1.00
2022-09-11T11:20:09.891Z,1.23
2022-09-11T11:22:56.563Z,1.05
2022-09-11T11:25:29.389Z,0.85
2022-09-11T11:28:22.403Z,0.77
2022-09-11T11:31:20.116Z,0.90
2022-09-11T11:33:55.987Z,0.80
2022-09-11T11:36:38.044Z,0.80
2022-09-11T11:39:18.866Z,0.90
2022-09-11T11:41:48.758Z,0.90
2022-09-11T11:44:18.809Z,0.93
2022-09-11T11:46:47.850Z,1.15
2022-09-11T11:49:19.448Z,1.30
2022-09-11T11:51:54.197Z,1.10
2022-09-11T11:54:25.956Z,0.88
2022-09-11T11:56:54.801Z,1.20
2022-09-11T11:59:47.534Z,0.90
2022-09-11T12:02:24.853Z,1.00
2022-09-11T12:05:07.976Z,0.95
2022-09-11T12:07:37.313Z,0.90
2022-09-11T12:10:05.866Z,0.70
2022-09-11T12:12:44.055Z,1.00
2022-09-11T12:15:21.281Z,0.98
2022-09-11T12:17:49.992Z,0.85
2022-09-11T12:20:39.315Z,0.90
2022-09-11T12:23:07.448Z,0.77
2022-09-11T12:25:35.437Z,1.00
2022-09-11T12:28:24.887Z,0.80
2022-09-11T12:30:59.358Z,1.00
2022-09-11T12:33:58.676Z,1.10
2022-09-11T12:37:02.192Z,1.20
2022-09-11T12:39:34.614Z,1.27
2022-09-11T12:42:33.894Z,0.90
2022-09-11T12:45:00.712Z,1.30
2022-09-11T12:47:37.422Z,1.15
2022-09-11T12:50:19.503Z,1.10
2022-09-11T12:52:46.419Z,1.05
2022-09-11T12:55:31.551Z,0.70
2022-09-11T12:58:02.501Z,1.10
2022-09-11T13:00:42.137Z,0.90
2022-09-11T13:03:20.045Z,1.20
2022-09-11T13:06:14.395Z,0.95
2022-09-11T13:08:49.027Z,0.93
2022-09-11T13:11:40.955Z,0.90
2022-09-11T13:14:30.867Z,1.17
2022-09-11T13:17:01.672Z,1.25
2022-09-11T13:19:32.631Z,1.10
2022-09-11T13:21:59.447Z,0.88
2022-09-11T13:24:32.767Z,1.00
2022-09-11T13:27:04.970Z,1.30
2022-09-11T13:29:33.002Z,1.10
2022-09-11T13:32:00.647Z,0.90
2022-09-11T13:34:28.635Z,0.80
2022-09-11T13:36:56.684Z,0.95
2022-09-11T13:39:23.938Z,1.30
2022-09-11T13:41:51.226Z,1.00
2022-09-11T13:44:43.879Z,0.90
2022-09-11T13:47:27.417Z,1.00
2022-09-11T13:50:00.777Z,1.20
2022-09-11T13:52:28.951Z,0.90
2022-09-11T13:54:57.742Z,0.80
2022-09-11T13:57:25.917Z,1.02
2022-09-11T14:00:02.138Z,1.10
2022-09-11T14:02:35.180Z,0.82
2022-09-11T14:05:23.312Z,0.95
2022-09-11T14:08:07.618Z,1.00
2022-09-11T14:10:42.215Z,0.95
2022-09-11T14:13:27.641Z,0.80
2022-09-11T14:16:16.038Z,0.98
2022-09-11T14:18:48.272Z,0.85
2022-09-11T14:21:36.553Z,0.75
2022-09-11T14:24:07.130Z,0.90
2022-09-11T14:26:36.676Z,0.93
2022-09-11T14:29:28.302Z,1.13
2022-09-11T14:31:55.874Z,0.80
2022-09-11T14:34:25.708Z,0.90
2022-09-11T14:37:09.277Z,0.80
2022-09-11T14:39:41.579Z,0.73
2022-09-11T14:42:21.659Z,0.80
2022-09-11T14:44:48.438Z,0.90
2022-09-11T14:47:19.101Z,0.90
2022-09-11T14:49:46.526Z,0.70
2022-09-11T14:52:18.662Z,0.55
2022-09-11T14:54:45.432Z,0.70
2022-09-11T14:57:20.588Z,0.50
2022-09-11T14:59:47.790Z,0.85
2022-09-11T15:02:16.286Z,0.80
2022-09-11T15:04:43.049Z,0.75
2022-09-11T15:07:13.506Z,0.80
2022-09-11T15:09:40.710Z,0.90
2022-09-11T15:12:08.157Z,0.70
2022-09-11T15:17:24.911Z,0.68
2022-09-11T15:19:52.691Z,0.80
2022-09-11T15:22:19.670Z,0.80
2022-09-11T15:24:49.064Z,1.02
2022-09-11T15:27:16.139Z,0.90
2022-09-11T15:29:42.968Z,0.80
2022-09-11T15:32:10.355Z,0.80
2022-09-11T15:34:38.628Z,0.70
2022-09-11T15:37:05.728Z,0.80
2022-09-11T15:39:34.123Z,0.73
2022-09-11T15:42:02.000Z,0.82
2022-09-11T15:44:29.132Z,0.82
2022-09-11T15:46:56.892Z,0.80
2022-09-11T15:49:24.043Z,0.88
2022-09-11T15:52:04.412Z,0.80
2022-09-11T15:54:41.059Z,0.90
2022-09-11T15:57:08.443Z,0.77
2022-09-11T15:59:35.219Z,0.80
2022-09-11T16:02:02.204Z,1.10
2022-09-11T16:04:31.433Z,1.00
2022-09-11T16:06:58.270Z,1.23
2022-09-11T16:09:26.282Z,0.70
2022-09-11T16:11:54.590Z,0.80
2022-09-11T16:14:23.623Z,0.70
2022-09-11T16:16:50.896Z,0.60
2022-09-11T16:19:19.040Z,1.15
2022-09-11T16:21:46.038Z,0.88
2022-09-11T16:24:15.486Z,0.77
2022-09-11T16:26:43.577Z,0.90
2022-09-11T16:29:12.484Z,0.85
2022-09-11T16:31:39.601Z,0.80
2022-09-11T16:34:06.869Z,0.90
2022-09-11T16:36:38.819Z,0.80
2022-09-11T16:39:06.816Z,0.90
2022-09-11T16:41:33.743Z,0.90
2022-09-11T16:44:00.607Z,0.70
2022-09-11T16:46:27.376Z,0.80
2022-09-11T16:48:57.763Z,0.70
2022-09-11T16:51:26.764Z,0.98
2022-09-11T16:53:54.190Z,0.82
2022-09-11T16:56:22.367Z,0.88
2022-09-11T16:58:49.255Z,0.88
2022-09-11T17:01:17.982Z,1.00
2022-09-11T17:03:45.799Z,0.98
2022-09-11T17:06:13.325Z,0.90
2022-09-11T17:08:40.948Z,1.00
2022-09-11T17:11:10.148Z,0.70
2022-09-11T17:13:45.442Z,0.90
2022-09-11T17:16:17.046Z,1.10
2022-09-11T17:18:48.709Z,0.90
2022-09-11T17:21:16.374Z,1.10
2022-09-11T17:23:43.495Z,0.93
2022-09-11T17:26:12.545Z,1.00
2022-09-11T17:28:39.775Z,1.17
2022-09-11T17:31:07.926Z,1.75
2022-09-11T17:33:35.863Z,1.00
2022-09-11T17:36:03.802Z,1.00
2022-09-11T17:38:30.772Z,0.82
2022-09-11T17:40:59.341Z,0.90
2022-09-11T17:43:26.138Z,1.10
2022-09-11T17:45:53.054Z,1.05
2022-09-11T17:48:20.324Z,1.23
2022-09-11T17:50:48.681Z,1.00
2022-09-11T17:53:16.985Z,1.23
2022-09-11T17:55:44.514Z,1.00
2022-09-11T17:58:11.405Z,1.17
2022-09-11T18:00:38.218Z,1.10
2022-09-11T18:03:05.116Z,1.40
2022-09-11T18:05:31.999Z,1.13
2022-09-11T18:08:00.175Z,1.42
2022-09-11T18:10:27.927Z,1.40
2022-09-11T18:12:54.721Z,1.50
2022-09-11T18:15:21.488Z,1.08
2022-09-11T18:17:48.349Z,0.88
2022-09-11T18:20:17.357Z,1.10
2022-09-11T18:22:44.176Z,1.10
2022-09-11T18:25:10.880Z,1.00
2022-09-11T18:27:37.631Z,1.20
2022-09-11T18:30:05.236Z,1.50
2022-09-11T18:32:31.924Z,1.10
2022-09-11T18:35:00.012Z,1.30
2022-09-11T18:37:27.047Z,1.20
2022-09-11T18:39:53.854Z,1.33
2022-09-11T18:42:21.181Z,1.42
2022-09-11T18:44:48.014Z,1.40
2022-09-11T18:47:14.833Z,1.25
2022-09-11T18:49:41.822Z,1.27
2022-09-11T18:52:08.945Z,1.40
2022-09-11T18:54:35.695Z,1.40
2022-09-11T18:57:04.197Z,1.70
2022-09-11T18:59:31.106Z,2.40
2022-09-11T19:01:57.957Z,2.20
2022-09-11T19:04:26.035Z,1.50
2022-09-11T19:06:52.782Z,1.77
2022-09-11T19:09:19.500Z,1.70
2022-09-11T19:11:46.290Z,1.50
2022-09-11T19:14:13.325Z,1.60
2022-09-11T19:16:40.243Z,1.50
2022-09-11T19:19:07.570Z,1.60
2022-09-11T19:21:36.183Z,1.20
2022-09-11T19:24:03.056Z,1.63
2022-09-11T19:26:35.077Z,1.30
2022-09-11T19:29:02.069Z,1.70
2022-09-11T19:31:29.724Z,1.17
2022-09-11T19:33:57.782Z,1.70
2022-09-11T19:36:25.901Z,2.20
2022-09-11T19:38:56.177Z,1.88
2022-09-11T19:41:24.085Z,1.85
2022-09-11T19:43:52.250Z,2.13
2022-09-11T19:46:20.796Z,1.50
2022-09-11T19:48:48.384Z,1.60
2022-09-11T19:51:19.859Z,1.70
2022-09-11T19:53:46.940Z,1.65
2022-09-11T19:56:16.797Z,1.80
2022-09-11T19:58:43.899Z,1.52
2022-09-11T20:01:12.639Z,1.70
2022-09-11T20:03:40.221Z,1.98
2022-09-11T20:06:07.160Z,2.00
2022-09-11T20:08:34.476Z,1.95
2022-09-11T20:11:02.180Z,2.05
2022-09-11T20:13:29.305Z,2.10
2022-09-11T20:16:05.099Z,2.00
2022-09-11T20:18:32.275Z,2.20
2022-09-11T20:21:03.506Z,2.30
2022-09-11T20:23:33.657Z,1.75
2022-09-11T20:26:17.601Z,1.83
2022-09-11T20:28:45.137Z,2.15
2022-09-11T20:31:22.572Z,2.13
2022-09-11T20:33:49.557Z,2.05
2022-09-11T20:36:16.548Z,2.08
2022-09-11T20:38:43.670Z,2.72
2022-09-11T20:41:14.017Z,1.73
2022-09-11T20:43:41.443Z,1.90
2022-09-11T20:46:08.562Z,2.00
2022-09-11T20:48:35.519Z,2.00
2022-09-11T20:51:10.259Z,2.15
2022-09-11T20:53:41.899Z,2.25
2022-09-11T20:56:09.930Z,2.10
2022-09-11T20:58:37.005Z,2.03
2022-09-11T21:01:04.528Z,1.85
2022-09-11T21:03:31.691Z,2.25
2022-09-11T21:06:04.156Z,2.30
2022-09-11T21:08:30.877Z,2.20
2022-09-11T21:11:04.314Z,2.42
2022-09-11T21:13:36.236Z,1.73
2022-09-11T21:16:08.870Z,2.13
2022-09-11T21:18:43.583Z,2.30
2022-09-11T21:21:10.535Z,2.45
2022-09-11T21:23:37.476Z,2.58
2022-09-11T21:26:10.502Z,3.08
2022-09-11T21:28:37.772Z,3.05
2022-09-11T21:31:14.279Z,2.90
2022-09-11T21:33:41.802Z,2.28
2022-09-11T21:36:08.642Z,2.60
2022-09-11T21:38:36.357Z,2.50
2022-09-11T21:41:04.995Z,2.60
2022-09-11T21:43:31.873Z,2.70
2022-09-11T21:45:58.657Z,2.97
2022-09-11T21:48:25.995Z,2.88
2022-09-11T21:50:52.810Z,2.95
2022-09-11T21:53:19.796Z,2.53
2022-09-11T21:55:47.224Z,3.28
2022-09-11T21:58:18.965Z,2.72
2022-09-11T22:00:48.186Z,3.53
2022-09-11T22:03:16.700Z,3.55
2022-09-11T22:05:44.128Z,2.80
2022-09-11T22:08:11.681Z,3.65
2022-09-11T22:10:42.991Z,2.80
2022-09-11T22:13:12.621Z,4.32
2022-09-11T22:15:40.819Z,2.70
2022-09-11T22:18:07.724Z,3.05
2022-09-11T22:20:36.466Z,3.40
2022-09-11T22:23:03.443Z,2.90
2022-09-11T22:25:30.213Z,3.08
2022-09-11T22:27:56.962Z,3.40
2022-09-11T22:30:23.832Z,3.38
2022-09-11T22:32:50.794Z,2.92
2022-09-11T22:35:17.635Z,3.10
2022-09-11T22:37:44.439Z,3.35
2022-09-11T22:40:11.342Z,3.50
2022-09-11T22:42:38.262Z,3.45
2022-09-11T22:45:05.513Z,3.58
2022-09-11T22:47:33.708Z,4.03
2022-09-11T22:50:00.506Z,3.33
2022-09-11T22:52:27.449Z,3.65
2022-09-11T22:54:54.238Z,3.83
2022-09-11T22:57:20.947Z,3.47
2022-09-11T22:59:47.707Z,4.15
2022-09-11T23:02:15.165Z,4.28
2022-09-11T23:05:02.035Z,4.35
2022-09-11T23:07:29.142Z,3.67
2022-09-11T23:09:55.903Z,4.18
2022-09-11T23:12:22.668Z,3.83
2022-09-11T23:14:49.441Z,3.85
2022-09-11T23:17:16.205Z,4.45
2022-09-11T23:19:43.107Z,3.42
2022-09-11T23:22:09.860Z,4.35
2022-09-11T23:24:36.532Z,3.53
2022-09-11T23:27:03.370Z,4.20
2022-09-11T23:29:30.078Z,4.07
2022-09-11T23:31:56.981Z,3.70
2022-09-11T23:34:23.798Z,3.58
2022-09-11T23:36:50.460Z,3.97
2022-09-11T23:39:17.298Z,4.55
2022-09-11T23:41:44.090Z,4.18
2022-09-11T23:44:10.852Z,3.92
2022-09-11T23:46:38.259Z,4.28
2022-09-11T23:49:06.301Z,4.55
2022-09-11T23:51:33.051Z,4.68
2022-09-11T23:53:59.705Z,5.03
2022-09-11T23:56:26.402Z,4.35
2022-09-11T23:58:53.164Z,4.50
